Right Now

Temperature THW Index 120.91°

91.85° 2.52

Humidity

85.49% 11.06

Dew Point

87.8° 0.63

Pressure

1017.69mb 0.18

Wind

4.57mph 0.32 S

Rain

0"

Last 6 Hours

Filter Columns:
Timestamp Temp Ground Temp Est. Temp THW Index Wet Bulb Humidity Dew Point Pressure Wind Speed Wind Gust Lightning Rainfall
375378 6/22/2024 9:44am 91.85° F --° F 91.85° F 120.91° F 85.33° F 85.49% 87.80° F 1017.69mb 4.57mph S 7.54mph 0 0.000"
375377 6/22/2024 9:39am 90.66° F --° F 90.66° F 122.73° F 85.08° F 91.52% 88.37° F 1017.68mb 3.43mph NW 8.23mph 0 0.000"
375376 6/22/2024 9:34am 90.18° F --° F 90.18° F 113.12° F 84.25° F 89.09% 87.21° F 1017.75mb 8.16mph S 17.15mph 0 0.000"
375375 6/22/2024 9:29am 90.57° F --° F 90.57° F 125.49° F 85.37° F 94.00% 88.97° F 1017.80mb 2.76mph S 8.23mph 0 0.000"
375374 6/22/2024 9:24am 91.13° F --° F 91.13° F 128.35° F 85.97° F 94.37% 89.63° F 1017.77mb 3.08mph NW 8.23mph 0 0.000"
375373 6/22/2024 9:18am 91.24° F --° F 91.24° F 126.49° F 86.08° F 94.36% 89.73° F 1017.87mb 5.33mph S 10.30mph 0 0.000"
375372 6/22/2024 9:13am 90.21° F --° F 90.21° F 126.91° F 85.65° F 98.70% 89.87° F 1017.83mb 4.21mph S 8.92mph 0 0.000"
375371 6/22/2024 9:08am 88.81° F --° F 88.81° F 117.41° F 84.41° F 100.00% 88.81° F 1017.74mb 7.40mph S 11.65mph 0 0.000"
375370 6/22/2024 9:03am 87.48° F --° F 87.48° F 115.49° F 83.07° F 100.00% 87.48° F 1018.01mb 2.92mph S 9.61mph 0 0.000"
375369 6/22/2024 8:58am 87.33° F --° F 87.33° F 109.98° F 82.93° F 100.00% 87.33° F 1017.97mb 7.38mph S 15.77mph 0 0.000"
375368 6/22/2024 8:53am 87.40° F --° F 87.40° F 111.78° F 83.00° F 100.00% 87.40° F 1018.02mb 6.02mph S 9.61mph 0 0.000"
375367 6/22/2024 8:48am 87.67° F --° F 87.67° F 116.24° F 83.27° F 100.00% 87.67° F 1018.15mb 3.10mph N 9.61mph 0 0.000"
375366 6/22/2024 8:43am 88.09° F --° F 88.09° F 118.97° F 83.69° F 100.00% 88.09° F 1018.18mb 2.51mph NNW 4.11mph 0 0.000"
375365 6/22/2024 8:38am 87.30° F --° F 87.30° F 114.63° F 82.89° F 100.00% 87.30° F 1018.15mb 2.90mph NNW 5.49mph 0 0.000"
375364 6/22/2024 8:33am 85.96° F --° F 85.96° F 109.07° F 81.55° F 100.00% 85.96° F 1018.17mb 2.14mph NNW 3.43mph 0 0.000"
375363 6/22/2024 8:28am 85.50° F --° F 85.50° F 106.81° F 81.08° F 100.00% 85.50° F 1018.20mb 2.28mph N 5.49mph 0 0.000"
375362 6/22/2024 8:23am 85.48° F --° F 85.48° F 102.46° F 81.06° F 100.00% 85.48° F 1018.18mb 6.25mph S 11.65mph 0 0.000"
375361 6/22/2024 8:18am 85.75° F --° F 85.75° F 108.16° F 81.33° F 100.00% 85.75° F 1018.20mb 2.09mph N 10.96mph 0 0.000"
375360 6/22/2024 8:13am 85.98° F --° F 85.98° F 109.66° F 81.57° F 100.00% 85.98° F 1018.19mb 1.68mph N 4.80mph 0 0.000"
375359 6/22/2024 8:07am 86.29° F --° F 86.29° F 111.72° F 81.88° F 100.00% 86.29° F 1018.19mb 1.10mph NNW 4.80mph 0 0.000"
375358 6/22/2024 8:02am 85.08° F --° F 85.08° F 105.83° F 80.66° F 100.00% 85.08° F 1018.16mb 1.43mph NNW 4.11mph 0 0.000"
375357 6/22/2024 7:57am 83.07° F --° F 83.07° F 96.87° F 78.63° F 100.00% 83.07° F 1018.15mb 1.79mph N 3.43mph 0 0.000"
375356 6/22/2024 7:52am 82.22° F --° F 82.22° F 93.10° F 77.78° F 100.00% 82.22° F 1018.10mb 2.14mph N 4.80mph 0 0.000"
375355 6/22/2024 7:47am 81.93° F --° F 81.93° F 91.56° F 77.49° F 100.00% 81.93° F 1017.99mb 2.53mph NNW 5.49mph 0 0.000"
375354 6/22/2024 7:42am 81.75° F --° F 81.75° F 92.05° F 77.31° F 100.00% 81.75° F 1017.96mb 1.43mph N 2.74mph 0 0.000"
375353 6/22/2024 7:37am 81.54° F --° F 81.54° F 90.49° F 77.09° F 100.00% 81.54° F 1017.82mb 2.14mph N 4.11mph 0 0.000"
375352 6/22/2024 7:32am 81.39° F --° F 81.39° F 92.22° F 76.94° F 100.00% 81.39° F 1017.84mb 0.00mph -- 0.69mph 0 0.000"
375351 6/22/2024 7:27am 81.46° F --° F 81.46° F 92.01° F 77.02° F 100.00% 81.46° F 1017.77mb 0.44mph N 3.43mph 0 0.000"
375350 6/22/2024 7:22am 81.81° F --° F 81.81° F 93.81° F 77.36° F 100.00% 81.81° F 1017.77mb 0.00mph -- 0.00mph 0 0.000"
375349 6/22/2024 7:17am 82.17° F --° F 82.17° F 95.20° F 77.72° F 100.00% 82.17° F 1017.91mb 0.00mph -- 0.00mph 0 0.000"
375348 6/22/2024 7:12am 80.55° F --° F 80.55° F 89.01° F 76.09° F 100.00% 80.55° F 1017.71mb 0.11mph N 1.38mph 0 0.000"
375347 6/22/2024 7:07am 78.71° F --° F 78.71° F 82.85° F 74.24° F 100.00% 78.71° F 1017.76mb 0.00mph -- 0.00mph 0 0.000"
375346 6/22/2024 7:02am 78.75° F --° F 78.75° F 82.98° F 74.28° F 100.00% 78.75° F 1017.74mb 0.00mph -- 0.00mph 0 0.000"
375345 6/22/2024 6:57am 78.84° F --° F 78.84° F 83.28° F 74.37° F 100.00% 78.84° F 1017.62mb 0.00mph -- 0.00mph 0 0.000"
375344 6/22/2024 6:52am 78.98° F --° F 78.98° F 83.73° F 74.52° F 100.00% 78.98° F 1017.50mb 0.00mph -- 0.00mph 0 0.000"
375343 6/22/2024 6:47am 79.16° F --° F 79.16° F 84.33° F 74.70° F 100.00% 79.16° F 1017.50mb 0.00mph -- 0.00mph 0 0.000"
375342 6/22/2024 6:42am 79.47° F --° F 79.47° F 85.37° F 75.00° F 100.00% 79.47° F 1017.56mb 0.00mph -- 0.00mph 0 0.000"
375341 6/22/2024 6:37am 79.86° F --° F 79.86° F 86.70° F 75.40° F 100.00% 79.86° F 1017.47mb 0.00mph -- 0.00mph 0 0.000"
375340 6/22/2024 6:31am 80.40° F --° F 80.40° F 88.60° F 75.95° F 100.00% 80.40° F 1017.41mb 0.00mph -- 0.00mph 0 0.000"
375339 6/22/2024 6:26am 80.13° F --° F 80.13° F 87.64° F 75.68° F 100.00% 80.13° F 1017.45mb 0.00mph -- 0.00mph 0 0.000"
375338 6/22/2024 6:21am 78.80° F --° F 78.80° F 83.15° F 74.33° F 100.00% 78.80° F 1017.35mb 0.00mph -- 0.00mph 0 0.000"
375337 6/22/2024 6:16am 78.51° F --° F 78.51° F 82.21° F 74.04° F 100.00% 78.51° F 1017.24mb 0.00mph -- 0.00mph 0 0.000"
375336 6/22/2024 6:11am 78.76° F --° F 78.76° F 83.02° F 74.30° F 100.00% 78.76° F 1017.22mb 0.00mph -- 0.00mph 0 0.000"
375335 6/22/2024 6:06am 79.07° F --° F 79.07° F 84.03° F 74.61° F 100.00% 79.07° F 1017.20mb 0.00mph -- 0.00mph 0 0.000"
375334 6/22/2024 6:01am 79.43° F --° F 79.43° F 85.23° F 74.97° F 100.00% 79.43° F 1017.20mb 0.00mph -- 0.00mph 0 0.000"
375333 6/22/2024 5:56am 79.86° F --° F 79.86° F 86.70° F 75.40° F 100.00% 79.86° F 1017.25mb 0.00mph -- 0.00mph 0 0.000"
375332 6/22/2024 5:51am 80.38° F --° F 80.38° F 88.30° F 75.93° F 100.00% 80.38° F 1017.31mb 0.21mph N 2.74mph 0 0.000"
375331 6/22/2024 5:46am 80.33° F --° F 80.33° F 85.59° F 75.88° F 100.00% 80.33° F 1017.18mb 2.57mph NNW 4.11mph 0 0.000"
375330 6/22/2024 5:41am 79.23° F --° F 79.23° F 83.88° F 74.77° F 100.00% 79.23° F 1017.20mb 0.64mph NNW 2.74mph 0 0.000"
375329 6/22/2024 5:36am 78.96° F --° F 78.96° F 83.67° F 74.50° F 100.00% 78.96° F 1017.26mb 0.00mph -- 0.00mph 0 0.000"
375328 6/22/2024 5:31am 79.27° F --° F 79.27° F 84.70° F 74.81° F 100.00% 79.27° F 1017.30mb 0.00mph -- 0.00mph 0 0.000"
375327 6/22/2024 5:26am 79.65° F --° F 79.65° F 85.98° F 75.19° F 100.00% 79.65° F 1017.16mb 0.00mph -- 0.00mph 0 0.000"
375326 6/22/2024 5:21am 80.06° F --° F 80.06° F 87.40° F 75.60° F 100.00% 80.06° F 1017.13mb 0.00mph -- 0.00mph 0 0.000"
375325 6/22/2024 5:16am 80.64° F --° F 80.64° F 89.46° F 76.18° F 100.00% 80.64° F 1017.18mb 0.00mph -- 0.00mph 0 0.000"
375324 6/22/2024 5:11am 80.35° F --° F 80.35° F 88.30° F 75.89° F 100.00% 80.35° F 1017.19mb 0.11mph N 1.38mph 0 0.000"
375323 6/22/2024 5:06am 79.12° F --° F 79.12° F 84.18° F 74.66° F 100.00% 79.12° F 1017.11mb 0.02mph N 0.69mph 0 0.000"
375322 6/22/2024 5:01am 78.67° F --° F 78.67° F 82.72° F 74.21° F 100.00% 78.67° F 1017.07mb 0.00mph -- 0.00mph 0 0.000"
375321 6/22/2024 4:55am 78.82° F --° F 78.82° F 83.21° F 74.35° F 100.00% 78.82° F 1017.09mb 0.00mph -- 0.00mph 0 0.000"
375320 6/22/2024 4:50am 79.03° F --° F 79.03° F 83.90° F 74.57° F 100.00% 79.03° F 1017.05mb 0.00mph -- 0.00mph 0 0.000"
375319 6/22/2024 4:45am 79.25° F --° F 79.25° F 84.63° F 74.79° F 100.00% 79.25° F 1016.92mb 0.00mph -- 0.00mph 0 0.000"
375318 6/22/2024 4:40am 79.56° F --° F 79.56° F 85.67° F 75.10° F 100.00% 79.56° F 1016.89mb 0.00mph -- 0.00mph 0 0.000"
375317 6/22/2024 4:35am 79.83° F --° F 79.83° F 86.60° F 75.37° F 100.00% 79.83° F 1016.92mb 0.00mph -- 0.00mph 0 0.000"
375316 6/22/2024 4:30am 80.20° F --° F 80.20° F 87.89° F 75.75° F 100.00% 80.20° F 1016.95mb 0.00mph -- 0.00mph 0 0.000"
375315 6/22/2024 4:25am 80.69° F --° F 80.69° F 89.64° F 76.24° F 100.00% 80.69° F 1016.90mb 0.00mph -- 0.00mph 0 0.000"
375314 6/22/2024 4:20am 81.27° F --° F 81.27° F 91.08° F 76.82° F 100.00% 81.27° F 1016.98mb 0.64mph NNW 2.74mph 0 0.000"
375313 6/22/2024 4:15am 80.92° F --° F 80.92° F 89.73° F 76.47° F 100.00% 80.92° F 1016.99mb 0.69mph NNW 2.74mph 0 0.000"
375312 6/22/2024 4:10am 79.79° F --° F 79.79° F 86.44° F 75.33° F 100.00% 79.79° F 1016.91mb 0.02mph N 0.69mph 0 0.000"
375311 6/22/2024 4:05am 79.36° F --° F 79.36° F 85.00° F 74.90° F 100.00% 79.36° F 1016.94mb 0.00mph -- 0.00mph 0 0.000"
375310 6/22/2024 4:00am 79.56° F --° F 79.56° F 85.67° F 75.10° F 100.00% 79.56° F 1017.00mb 0.00mph -- 0.00mph 0 0.000"
375309 6/22/2024 3:55am 79.70° F --° F 79.70° F 86.15° F 75.24° F 100.00% 79.70° F 1016.92mb 0.00mph -- 0.00mph 0 0.000"
375308 6/22/2024 3:50am 79.93° F --° F 79.93° F 86.94° F 75.48° F 100.00% 79.93° F 1016.91mb 0.00mph -- 0.00mph 0 0.000"